createdAt,value
2022-09-03T00:00:51.327Z,1005.99
2022-09-03T00:01:51.366Z,1005.98
2022-09-03T00:02:51.364Z,1005.98
2022-09-03T00:03:51.293Z,1005.95
2022-09-03T00:04:51.305Z,1005.95
2022-09-03T00:05:51.265Z,1005.94
2022-09-03T00:06:51.256Z,1005.95
2022-09-03T00:07:51.251Z,1005.95
2022-09-03T00:08:51.238Z,1005.95
2022-09-03T00:09:51.234Z,1005.97
2022-09-03T00:10:51.215Z,1005.93
2022-09-03T00:11:51.203Z,1005.90
2022-09-03T00:12:51.194Z,1005.91
2022-09-03T00:13:51.187Z,1005.91
2022-09-03T00:14:51.184Z,1005.95
2022-09-03T00:15:51.184Z,1005.95
2022-09-03T00:16:51.154Z,1005.94
2022-09-03T00:17:51.137Z,1005.96
2022-09-03T00:18:51.125Z,1005.97
2022-09-03T00:19:51.120Z,1005.98
2022-09-03T00:20:51.107Z,1005.94
2022-09-03T00:21:51.084Z,1005.97
2022-09-03T00:22:51.084Z,1005.97
2022-09-03T00:23:51.063Z,1005.98
2022-09-03T00:24:51.162Z,1005.98
2022-09-03T00:25:51.041Z,1005.97
2022-09-03T00:26:51.028Z,1006.01
2022-09-03T00:27:51.025Z,1006.01
2022-09-03T00:28:51.008Z,1005.99
2022-09-03T00:29:51.002Z,1005.96
2022-09-03T00:30:51.036Z,1005.97
2022-09-03T00:31:50.979Z,1005.98
2022-09-03T00:32:50.977Z,1005.95
2022-09-03T00:33:50.956Z,1005.98
2022-09-03T00:34:50.938Z,1005.96
2022-09-03T00:35:50.947Z,1005.99
2022-09-03T00:36:50.925Z,1005.99
2022-09-03T00:37:50.914Z,1005.97
2022-09-03T00:38:50.894Z,1005.94
2022-09-03T00:39:50.932Z,1005.95
2022-09-03T00:40:50.888Z,1005.96
2022-09-03T00:41:50.859Z,1005.97
2022-09-03T00:42:50.860Z,1005.99
2022-09-03T00:43:50.844Z,1005.99
2022-09-03T00:44:50.839Z,1005.95
2022-09-03T00:45:50.837Z,1005.97
2022-09-03T00:46:50.803Z,1005.97
2022-09-03T00:47:50.799Z,1006.00
2022-09-03T00:48:50.792Z,1005.99
2022-09-03T00:49:50.771Z,1005.98
2022-09-03T00:50:50.776Z,1006.01
2022-09-03T00:51:50.756Z,1005.96
2022-09-03T00:52:50.735Z,1005.98
2022-09-03T00:53:50.733Z,1005.95
2022-09-03T00:54:50.722Z,1005.91
2022-09-03T00:55:50.723Z,1005.91
2022-09-03T00:56:50.688Z,1005.92
2022-09-03T00:57:50.686Z,1005.90
2022-09-03T00:58:50.673Z,1005.89
2022-09-03T00:59:50.659Z,1005.95
2022-09-03T01:00:50.678Z,1005.90
2022-09-03T01:01:50.736Z,1005.90
2022-09-03T01:02:50.705Z,1005.92
2022-09-03T01:03:50.618Z,1005.89
2022-09-03T01:04:50.600Z,1005.88
2022-09-03T01:05:50.602Z,1005.88
2022-09-03T01:06:50.574Z,1005.87
2022-09-03T01:07:50.568Z,1005.86
2022-09-03T01:08:50.559Z,1005.88
2022-09-03T01:09:50.564Z,1005.88
2022-09-03T01:10:50.555Z,1005.89
2022-09-03T01:11:50.519Z,1005.89
2022-09-03T01:12:50.510Z,1005.93
2022-09-03T01:13:50.501Z,1005.87
2022-09-03T01:14:50.494Z,1005.88
2022-09-03T01:15:50.513Z,1005.90
2022-09-03T01:16:50.476Z,1005.87
2022-09-03T01:17:50.448Z,1005.91
2022-09-03T01:18:50.448Z,1005.90
2022-09-03T01:19:50.440Z,1005.90
2022-09-03T01:20:50.438Z,1005.92
2022-09-03T01:21:50.402Z,1005.90
2022-09-03T01:22:50.392Z,1005.87
2022-09-03T01:23:50.408Z,1005.87
2022-09-03T01:24:50.373Z,1005.88
2022-09-03T01:25:50.359Z,1005.91
2022-09-03T01:26:50.339Z,1005.86
2022-09-03T01:27:50.328Z,1005.90
2022-09-03T01:28:50.315Z,1005.92
2022-09-03T01:29:50.311Z,1005.88
2022-09-03T01:30:50.475Z,1005.90
2022-09-03T01:31:50.317Z,1005.91
2022-09-03T01:32:50.292Z,1005.92
2022-09-03T01:33:50.264Z,1005.95
2022-09-03T01:34:50.262Z,1005.96
2022-09-03T01:35:50.252Z,1005.99
2022-09-03T01:36:50.226Z,1005.95
2022-09-03T01:37:50.222Z,1005.97
2022-09-03T01:38:50.203Z,1005.98
2022-09-03T01:39:50.316Z,1005.98
2022-09-03T01:40:50.192Z,1006.03
2022-09-03T01:41:50.169Z,1006.02
2022-09-03T01:42:50.164Z,1006.00
2022-09-03T01:43:50.146Z,1006.00
2022-09-03T01:44:50.142Z,1005.95
2022-09-03T01:45:51.407Z,1005.99
2022-09-03T01:46:50.196Z,1006.00
2022-09-03T01:47:50.109Z,1005.94
2022-09-03T01:48:50.100Z,1005.98
2022-09-03T01:49:50.094Z,1006.00
2022-09-03T01:50:50.107Z,1005.96
2022-09-03T01:51:50.055Z,1005.96
2022-09-03T01:52:50.043Z,1005.92
2022-09-03T01:53:50.033Z,1005.92
2022-09-03T01:54:50.026Z,1005.87
2022-09-03T01:55:50.023Z,1005.90
2022-09-03T01:56:50.001Z,1005.89
2022-09-03T01:57:49.994Z,1005.95
2022-09-03T01:58:49.994Z,1005.92
2022-09-03T01:59:49.971Z,1005.92
2022-09-03T02:00:49.975Z,1005.90
2022-09-03T02:01:50.004Z,1005.86
2022-09-03T02:02:49.951Z,1005.87
2022-09-03T02:03:49.925Z,1005.85
2022-09-03T02:04:49.916Z,1005.88
2022-09-03T02:05:49.909Z,1005.89
2022-09-03T02:06:49.890Z,1005.91
2022-09-03T02:07:49.880Z,1005.90
2022-09-03T02:08:49.867Z,1005.89
2022-09-03T02:09:49.853Z,1005.88
2022-09-03T02:10:49.856Z,1005.84
2022-09-03T02:11:49.828Z,1005.88
2022-09-03T02:12:49.814Z,1005.88
2022-09-03T02:13:49.805Z,1005.87
2022-09-03T02:14:49.793Z,1005.86
2022-09-03T02:15:49.825Z,1005.87
2022-09-03T02:16:49.769Z,1005.92
2022-09-03T02:17:49.761Z,1005.87
2022-09-03T02:18:49.746Z,1005.85
2022-09-03T02:19:49.738Z,1005.84
2022-09-03T02:20:49.746Z,1005.85
2022-09-03T02:21:49.717Z,1005.81
2022-09-03T02:22:49.709Z,1005.82
2022-09-03T02:23:49.690Z,1005.82
2022-09-03T02:24:49.687Z,1005.80
2022-09-03T02:25:49.682Z,1005.81
2022-09-03T02:26:49.692Z,1005.83
2022-09-03T02:27:49.653Z,1005.79
2022-09-03T02:28:49.649Z,1005.77
2022-09-03T02:29:49.633Z,1005.82
2022-09-03T02:30:49.650Z,1005.78
2022-09-03T02:31:49.600Z,1005.81
2022-09-03T02:32:49.626Z,1005.76
2022-09-03T02:33:49.587Z,1005.79
2022-09-03T02:34:49.574Z,1005.77
2022-09-03T02:35:49.575Z,1005.79
2022-09-03T02:36:49.545Z,1005.81
2022-09-03T02:37:49.542Z,1005.82
2022-09-03T02:38:49.535Z,1005.81
2022-09-03T02:39:49.564Z,1005.83
2022-09-03T02:40:49.522Z,1005.82
2022-09-03T02:41:49.502Z,1005.78
2022-09-03T02:42:49.479Z,1005.78
2022-09-03T02:43:49.476Z,1005.75
2022-09-03T02:44:49.461Z,1005.80
2022-09-03T02:45:49.560Z,1005.79
2022-09-03T02:46:49.441Z,1005.76
2022-09-03T02:47:49.438Z,1005.74
2022-09-03T02:48:49.419Z,1005.77
2022-09-03T02:49:49.402Z,1005.76
2022-09-03T02:50:49.406Z,1005.74
2022-09-03T02:51:49.381Z,1005.71
2022-09-03T02:52:49.377Z,1005.73
2022-09-03T02:53:49.365Z,1005.72
2022-09-03T02:54:49.356Z,1005.72
2022-09-03T02:55:49.347Z,1005.75
2022-09-03T02:56:49.330Z,1005.77
2022-09-03T02:57:49.325Z,1005.75
2022-09-03T02:58:49.304Z,1005.78
2022-09-03T02:59:49.297Z,1005.75
2022-09-03T03:00:49.295Z,1005.76
2022-09-03T03:01:49.317Z,1005.75
2022-09-03T03:02:49.321Z,1005.78
2022-09-03T03:03:49.257Z,1005.74
2022-09-03T03:04:49.246Z,1005.72
2022-09-03T03:05:49.248Z,1005.72
2022-09-03T03:06:49.210Z,1005.71
2022-09-03T03:07:49.209Z,1005.71
2022-09-03T03:08:49.189Z,1005.67
2022-09-03T03:09:49.178Z,1005.70
2022-09-03T03:10:49.175Z,1005.67
2022-09-03T03:11:49.173Z,1005.67
2022-09-03T03:12:49.144Z,1005.69
2022-09-03T03:13:49.136Z,1005.67
2022-09-03T03:14:49.128Z,1005.71
2022-09-03T03:15:49.115Z,1005.67
2022-09-03T03:16:49.185Z,1005.66
2022-09-03T03:17:49.087Z,1005.63
2022-09-03T03:18:49.078Z,1005.65
2022-09-03T03:19:49.064Z,1005.63
2022-09-03T03:20:49.055Z,1005.62
2022-09-03T03:21:49.062Z,1005.59
2022-09-03T03:22:49.031Z,1005.58
2022-09-03T03:23:49.019Z,1005.61
2022-09-03T03:24:49.015Z,1005.57
2022-09-03T03:25:49.006Z,1005.58
2022-09-03T03:26:49.020Z,1005.59
2022-09-03T03:27:48.984Z,1005.62
2022-09-03T03:28:49.073Z,1005.57
2022-09-03T03:29:48.953Z,1005.63
2022-09-03T03:30:49.135Z,1005.63
2022-09-03T03:31:48.978Z,1005.62
2022-09-03T03:32:48.927Z,1005.65
2022-09-03T03:33:48.908Z,1005.63
2022-09-03T03:34:48.902Z,1005.66
2022-09-03T03:35:48.889Z,1005.62
2022-09-03T03:36:48.887Z,1005.62
2022-09-03T03:37:48.880Z,1005.65
2022-09-03T03:38:48.862Z,1005.63
2022-09-03T03:39:48.970Z,1005.64
2022-09-03T03:40:48.832Z,1005.65
2022-09-03T03:41:48.816Z,1005.64
2022-09-03T03:42:48.873Z,1005.66
2022-09-03T03:43:48.795Z,1005.64
2022-09-03T03:44:48.790Z,1005.65
2022-09-03T03:45:48.817Z,1005.67
2022-09-03T03:46:48.771Z,1005.61
2022-09-03T03:47:48.772Z,1005.61
2022-09-03T03:48:48.745Z,1005.61
2022-09-03T03:49:48.727Z,1005.58
2022-09-03T03:50:48.722Z,1005.57
2022-09-03T03:51:48.706Z,1005.57
2022-09-03T03:52:48.715Z,1005.57
2022-09-03T03:53:48.684Z,1005.57
2022-09-03T03:54:48.678Z,1005.59
2022-09-03T03:55:48.670Z,1005.61
2022-09-03T03:56:55.567Z,1005.59
2022-09-03T03:57:49.659Z,1005.60
2022-09-03T03:58:48.625Z,1005.62
2022-09-03T03:59:48.616Z,1005.63
2022-09-03T04:00:48.625Z,1005.61
2022-09-03T04:01:48.595Z,1005.59
2022-09-03T04:02:48.654Z,1005.59
2022-09-03T04:03:48.602Z,1005.57
2022-09-03T04:04:48.568Z,1005.58
2022-09-03T04:05:48.735Z,1005.58
2022-09-03T04:06:48.546Z,1005.56
2022-09-03T04:07:48.540Z,1005.53
2022-09-03T04:08:48.516Z,1005.52
2022-09-03T04:09:48.507Z,1005.56
2022-09-03T04:10:48.502Z,1005.52
2022-09-03T04:11:48.492Z,1005.55
2022-09-03T04:12:48.489Z,1005.55
2022-09-03T04:13:48.468Z,1005.54
2022-09-03T04:14:48.449Z,1005.52
2022-09-03T04:15:48.453Z,1005.47
2022-09-03T04:16:48.459Z,1005.53
2022-09-03T04:17:48.432Z,1005.49
2022-09-03T04:18:48.413Z,1005.53
2022-09-03T04:19:48.402Z,1005.53
2022-09-03T04:20:48.384Z,1005.50
2022-09-03T04:21:48.385Z,1005.48
2022-09-03T04:22:51.890Z,1005.51
2022-09-03T04:23:48.352Z,1005.53
2022-09-03T04:24:48.336Z,1005.55
2022-09-03T04:25:48.335Z,1005.54
2022-09-03T04:26:48.316Z,1005.52
2022-09-03T04:27:48.317Z,1005.58
2022-09-03T04:28:48.298Z,1005.56
2022-09-03T04:29:48.282Z,1005.53
2022-09-03T04:30:49.246Z,1005.54
2022-09-03T04:31:48.270Z,1005.51
2022-09-03T04:32:48.299Z,1005.56
2022-09-03T04:33:48.244Z,1005.55
2022-09-03T04:34:48.234Z,1005.56
2022-09-03T04:35:48.215Z,1005.51
2022-09-03T04:36:52.400Z,1005.52
2022-09-03T04:37:48.193Z,1005.53
2022-09-03T04:38:48.203Z,1005.56
2022-09-03T04:39:48.278Z,1005.54
2022-09-03T04:40:48.159Z,1005.53
2022-09-03T04:41:48.149Z,1005.54
2022-09-03T04:42:48.147Z,1005.51
2022-09-03T04:43:48.300Z,1005.53
2022-09-03T04:44:48.114Z,1005.55
2022-09-03T04:45:48.156Z,1005.50
2022-09-03T04:46:48.094Z,1005.55
2022-09-03T04:47:48.094Z,1005.54
2022-09-03T04:48:48.088Z,1005.51
2022-09-03T04:49:48.064Z,1005.48
2022-09-03T04:50:48.052Z,1005.51
2022-09-03T04:51:48.042Z,1005.49
2022-09-03T04:52:48.033Z,1005.51
2022-09-03T04:53:48.038Z,1005.50
2022-09-03T04:54:48.000Z,1005.50
2022-09-03T04:55:47.990Z,1005.50
2022-09-03T04:56:47.977Z,1005.53
2022-09-03T04:57:47.974Z,1005.50
2022-09-03T04:58:51.023Z,1005.50
2022-09-03T04:59:47.951Z,1005.54
2022-09-03T05:00:47.969Z,1005.51
2022-09-03T05:01:47.947Z,1005.50
2022-09-03T05:02:47.908Z,1005.51
2022-09-03T05:03:47.920Z,1005.52
2022-09-03T05:04:47.892Z,1005.53
2022-09-03T05:05:51.992Z,1005.56
2022-09-03T05:06:47.864Z,1005.54
2022-09-03T05:07:47.859Z,1005.57
2022-09-03T05:08:47.899Z,1005.61
2022-09-03T05:09:47.830Z,1005.62
2022-09-03T05:10:47.828Z,1005.65
2022-09-03T05:11:47.813Z,1005.64
2022-09-03T05:12:47.797Z,1005.63
2022-09-03T05:13:47.808Z,1005.67
2022-09-03T05:14:47.786Z,1005.63
2022-09-03T05:15:47.766Z,1005.59
2022-09-03T05:16:53.234Z,1005.61
2022-09-03T05:17:48.738Z,1005.62
2022-09-03T05:18:47.756Z,1005.65
2022-09-03T05:19:47.723Z,1005.60
2022-09-03T05:20:47.713Z,1005.60
2022-09-03T05:21:47.700Z,1005.61
2022-09-03T05:22:47.688Z,1005.60
2022-09-03T05:23:47.718Z,1005.62
2022-09-03T05:24:47.668Z,1005.59
2022-09-03T05:25:47.654Z,1005.57
2022-09-03T05:26:47.645Z,1005.60
2022-09-03T05:27:47.633Z,1005.63
2022-09-03T05:28:47.637Z,1005.58
2022-09-03T05:29:47.606Z,1005.60
2022-09-03T05:30:47.593Z,1005.57
2022-09-03T05:31:47.786Z,1005.60
2022-09-03T05:32:47.575Z,1005.58
2022-09-03T05:33:47.580Z,1005.57
2022-09-03T05:34:47.553Z,1005.57
2022-09-03T05:35:47.540Z,1005.56
2022-09-03T05:36:47.523Z,1005.60
2022-09-03T05:37:47.520Z,1005.61
2022-09-03T05:38:47.525Z,1005.63
2022-09-03T05:39:47.527Z,1005.60
2022-09-03T05:40:47.490Z,1005.63
2022-09-03T05:41:47.468Z,1005.61
2022-09-03T05:42:47.463Z,1005.59
2022-09-03T05:43:47.466Z,1005.55
2022-09-03T05:44:47.442Z,1005.56
2022-09-03T05:45:47.514Z,1005.51
2022-09-03T05:46:47.419Z,1005.55
2022-09-03T05:47:47.402Z,1005.56
2022-09-03T05:48:47.411Z,1005.59
2022-09-03T05:49:47.380Z,1005.59
2022-09-03T05:50:47.368Z,1005.59
2022-09-03T05:51:47.356Z,1005.61
2022-09-03T05:52:47.383Z,1005.59
2022-09-03T05:53:47.345Z,1005.59
2022-09-03T05:54:47.324Z,1005.60
2022-09-03T05:55:47.315Z,1005.59
2022-09-03T05:56:47.311Z,1005.59
2022-09-03T05:57:47.314Z,1005.57
2022-09-03T05:58:47.286Z,1005.59
2022-09-03T05:59:47.266Z,1005.58
2022-09-03T06:00:47.264Z,1005.60
2022-09-03T06:01:51.086Z,1005.59
2022-09-03T06:02:48.429Z,1005.60
2022-09-03T06:03:47.278Z,1005.60
2022-09-03T06:04:47.221Z,1005.61
2022-09-03T06:05:47.203Z,1005.63
2022-09-03T06:06:47.190Z,1005.61
2022-09-03T06:07:47.198Z,1005.61
2022-09-03T06:08:47.171Z,1005.64
2022-09-03T06:09:47.165Z,1005.64
2022-09-03T06:10:47.149Z,1005.65
2022-09-03T06:11:47.137Z,1005.67
2022-09-03T06:12:47.427Z,1005.66
2022-09-03T06:13:47.112Z,1005.69
2022-09-03T06:14:47.109Z,1005.70
2022-09-03T06:15:47.094Z,1005.72
2022-09-03T06:16:47.151Z,1005.77
2022-09-03T06:17:47.089Z,1005.78
2022-09-03T06:18:47.065Z,1005.77
2022-09-03T06:19:47.044Z,1005.78
2022-09-03T06:20:47.035Z,1005.76
2022-09-03T06:21:47.026Z,1005.75
2022-09-03T06:22:47.037Z,1005.77
2022-09-03T06:23:47.011Z,1005.75
2022-09-03T06:24:46.996Z,1005.78
2022-09-03T06:25:46.978Z,1005.77
2022-09-03T06:26:47.005Z,1005.78
2022-09-03T06:27:46.974Z,1005.81
2022-09-03T06:28:46.966Z,1005.81
2022-09-03T06:29:46.939Z,1005.76
2022-09-03T06:30:46.930Z,1005.75
2022-09-03T06:31:46.981Z,1005.74
2022-09-03T06:32:46.908Z,1005.74
2022-09-03T06:33:46.911Z,1005.75
2022-09-03T06:34:46.904Z,1005.76
2022-09-03T06:35:46.865Z,1005.81
2022-09-03T06:36:46.856Z,1005.85
2022-09-03T06:37:46.844Z,1005.78
2022-09-03T06:38:46.849Z,1005.75
2022-09-03T06:39:46.889Z,1005.81
2022-09-03T06:40:46.823Z,1005.74
2022-09-03T06:41:46.800Z,1005.77
2022-09-03T06:42:46.787Z,1005.73
2022-09-03T06:43:46.803Z,1005.71
2022-09-03T06:44:46.776Z,1005.75
2022-09-03T06:45:46.816Z,1005.75
2022-09-03T06:46:46.756Z,1005.70
2022-09-03T06:47:46.738Z,1005.70
2022-09-03T06:48:46.744Z,1005.69
2022-09-03T06:49:46.714Z,1005.69
2022-09-03T06:50:46.703Z,1005.70
2022-09-03T06:51:46.687Z,1005.71
2022-09-03T06:52:46.829Z,1005.69
2022-09-03T06:53:46.691Z,1005.67
2022-09-03T06:54:46.650Z,1005.76
2022-09-03T06:55:46.650Z,1005.70
2022-09-03T06:56:46.651Z,1005.70
2022-09-03T06:57:46.614Z,1005.70
2022-09-03T06:58:47.619Z,1005.72
2022-09-03T06:59:46.592Z,1005.71
2022-09-03T07:00:46.682Z,1005.75
2022-09-03T07:01:46.979Z,1005.69
2022-09-03T07:02:46.559Z,1005.69
2022-09-03T07:03:46.579Z,1005.65
2022-09-03T07:04:46.541Z,1005.71
2022-09-03T07:05:46.531Z,1005.73
2022-09-03T07:06:46.617Z,1005.71
2022-09-03T07:07:46.591Z,1005.76
2022-09-03T07:08:46.500Z,1005.76
2022-09-03T07:09:48.492Z,1005.78
2022-09-03T07:10:46.466Z,1005.81
2022-09-03T07:11:46.460Z,1005.84
2022-09-03T07:12:46.487Z,1005.86
2022-09-03T07:13:46.447Z,1005.81
2022-09-03T07:14:46.429Z,1005.82
2022-09-03T07:15:46.497Z,1005.80
2022-09-03T07:16:46.436Z,1005.80
2022-09-03T07:17:46.422Z,1005.84
2022-09-03T07:18:46.394Z,1005.83
2022-09-03T07:19:46.364Z,1005.79
2022-09-03T07:20:46.353Z,1005.82
2022-09-03T07:21:50.726Z,1005.83
2022-09-03T07:22:46.339Z,1005.86
2022-09-03T07:23:46.353Z,1005.79
2022-09-03T07:24:46.316Z,1005.81
2022-09-03T07:25:46.296Z,1005.80
2022-09-03T07:26:46.288Z,1005.87
2022-09-03T07:27:46.346Z,1005.90
2022-09-03T07:28:46.310Z,1005.82
2022-09-03T07:29:46.260Z,1005.82
2022-09-03T07:30:46.242Z,1005.84
2022-09-03T07:31:46.297Z,1005.82
2022-09-03T07:32:46.279Z,1005.83
2022-09-03T07:33:46.231Z,1005.82
2022-09-03T07:34:46.203Z,1005.83
2022-09-03T07:35:46.188Z,1005.82
2022-09-03T07:36:46.187Z,1005.84
2022-09-03T07:37:46.169Z,1005.84
2022-09-03T07:38:46.181Z,1005.80
2022-09-03T07:39:46.257Z,1005.82
2022-09-03T07:40:46.151Z,1005.82
2022-09-03T07:41:46.296Z,1005.84
2022-09-03T07:42:46.154Z,1005.79
2022-09-03T07:43:46.126Z,1005.84
2022-09-03T07:44:46.094Z,1005.83
2022-09-03T07:45:46.090Z,1005.85
2022-09-03T07:46:46.252Z,1005.86
2022-09-03T07:47:46.086Z,1005.87
2022-09-03T07:48:46.069Z,1005.87
2022-09-03T07:49:46.028Z,1005.81
2022-09-03T07:50:46.018Z,1005.85
2022-09-03T07:51:46.008Z,1005.90
2022-09-03T07:52:45.994Z,1005.91
2022-09-03T07:53:46.007Z,1005.88
2022-09-03T07:54:45.971Z,1005.89
2022-09-03T07:55:45.964Z,1005.86
2022-09-03T07:56:45.948Z,1005.88
2022-09-03T07:57:45.951Z,1005.88
2022-09-03T07:58:45.946Z,1006.03
2022-09-03T07:59:45.923Z,1005.97
2022-09-03T08:00:45.945Z,1005.96
2022-09-03T08:01:45.898Z,1005.94
2022-09-03T08:02:46.580Z,1005.93
2022-09-03T08:03:45.943Z,1005.93
2022-09-03T08:04:45.860Z,1006.01
2022-09-03T08:05:45.853Z,1005.97
2022-09-03T08:06:45.845Z,1006.00
2022-09-03T08:07:45.902Z,1006.04
2022-09-03T08:08:45.836Z,1006.01
2022-09-03T08:09:45.811Z,1006.08
2022-09-03T08:10:45.802Z,1006.10
2022-09-03T08:11:45.788Z,1006.11
2022-09-03T08:12:45.783Z,1006.15
2022-09-03T08:13:45.768Z,1006.12
2022-09-03T08:14:45.753Z,1006.18
2022-09-03T08:15:45.786Z,1006.17
2022-09-03T08:16:45.730Z,1006.16
2022-09-03T08:17:45.713Z,1006.18
2022-09-03T08:18:45.720Z,1006.18
2022-09-03T08:19:45.689Z,1006.20
2022-09-03T08:20:45.678Z,1006.17
2022-09-03T08:21:45.666Z,1006.16
2022-09-03T08:22:45.655Z,1006.19
2022-09-03T08:23:45.662Z,1006.17
2022-09-03T08:24:45.633Z,1006.16
2022-09-03T08:25:45.626Z,1006.22
2022-09-03T08:26:51.399Z,1006.25
2022-09-03T08:27:46.604Z,1006.26
2022-09-03T08:28:45.614Z,1006.19
2022-09-03T08:29:45.596Z,1006.26
2022-09-03T08:30:45.573Z,1006.25
2022-09-03T08:31:45.654Z,1006.23
2022-09-03T08:32:45.655Z,1006.25
2022-09-03T08:33:45.542Z,1006.22
2022-09-03T08:34:45.556Z,1006.32
2022-09-03T08:35:45.551Z,1006.21
2022-09-03T08:36:45.506Z,1006.22
2022-09-03T08:37:45.485Z,1006.23
2022-09-03T08:38:45.486Z,1006.19
2022-09-03T08:39:45.524Z,1006.21
2022-09-03T08:40:45.461Z,1006.19
2022-09-03T08:41:45.445Z,1006.24
2022-09-03T08:42:45.444Z,1006.23
2022-09-03T08:43:45.417Z,1006.21
2022-09-03T08:44:45.421Z,1006.21
2022-09-03T08:45:45.427Z,1006.33
2022-09-03T08:46:45.415Z,1006.32
2022-09-03T08:47:45.373Z,1006.33
2022-09-03T08:48:45.373Z,1006.28
2022-09-03T08:49:45.385Z,1006.32
2022-09-03T08:50:45.344Z,1006.30
2022-09-03T08:51:45.329Z,1006.31
2022-09-03T08:52:45.329Z,1006.34
2022-09-03T08:53:45.355Z,1006.36
2022-09-03T08:54:45.328Z,1006.36
2022-09-03T08:55:45.344Z,1006.39
2022-09-03T08:56:45.277Z,1006.40
2022-09-03T08:57:45.259Z,1006.40
2022-09-03T08:58:45.247Z,1006.38
2022-09-03T08:59:45.258Z,1006.40
2022-09-03T09:00:45.225Z,1006.40
2022-09-03T09:01:45.388Z,1006.41
2022-09-03T09:02:45.255Z,1006.40
2022-09-03T09:03:45.208Z,1006.40
2022-09-03T09:04:45.201Z,1006.41
2022-09-03T09:05:45.250Z,1006.44
2022-09-03T09:06:45.158Z,1006.41
2022-09-03T09:07:45.146Z,1006.43
2022-09-03T09:08:45.145Z,1006.49
2022-09-03T09:09:45.142Z,1006.43
2022-09-03T09:10:45.126Z,1006.42
2022-09-03T09:11:45.107Z,1006.44
2022-09-03T09:12:46.977Z,1006.46
2022-09-03T09:13:45.078Z,1006.43
2022-09-03T09:14:45.089Z,1006.43
2022-09-03T09:15:45.161Z,1006.43
2022-09-03T09:16:45.067Z,1006.40
2022-09-03T09:17:45.033Z,1006.40
2022-09-03T09:18:45.030Z,1006.41
2022-09-03T09:19:45.033Z,1006.44
2022-09-03T09:20:45.012Z,1006.42
2022-09-03T09:21:44.991Z,1006.41
2022-09-03T09:22:47.159Z,1006.41
2022-09-03T09:23:44.974Z,1006.40
2022-09-03T09:24:44.967Z,1006.40
2022-09-03T09:25:44.973Z,1006.45
2022-09-03T09:26:44.933Z,1006.44
2022-09-03T09:27:44.923Z,1006.40
2022-09-03T09:28:44.910Z,1006.42
2022-09-03T09:29:44.914Z,1006.41
2022-09-03T09:30:44.888Z,1006.39
2022-09-03T09:31:44.884Z,1006.41
2022-09-03T09:32:44.872Z,1006.38
2022-09-03T09:33:44.863Z,1006.40
2022-09-03T09:34:47.504Z,1006.43
2022-09-03T09:35:45.840Z,1006.38
2022-09-03T09:36:44.832Z,1006.42
2022-09-03T09:37:44.817Z,1006.38
2022-09-03T09:38:44.804Z,1006.40
2022-09-03T09:39:44.820Z,1006.33
2022-09-03T09:40:45.447Z,1006.34
2022-09-03T09:41:44.766Z,1006.32
2022-09-03T09:42:44.752Z,1006.31
2022-09-03T09:43:44.750Z,1006.34
2022-09-03T09:44:44.752Z,1006.35
2022-09-03T09:45:44.731Z,1006.33
2022-09-03T09:46:44.770Z,1006.34
2022-09-03T09:47:44.698Z,1006.34
2022-09-03T09:48:44.693Z,1006.35
2022-09-03T09:49:44.695Z,1006.37
2022-09-03T09:50:44.673Z,1006.36
2022-09-03T09:51:44.657Z,1006.35
2022-09-03T09:52:44.641Z,1006.39
2022-09-03T09:53:44.631Z,1006.40
2022-09-03T09:54:44.639Z,1006.38
2022-09-03T09:55:44.615Z,1006.40
2022-09-03T09:56:44.635Z,1006.36
2022-09-03T09:57:44.596Z,1006.35
2022-09-03T09:58:44.574Z,1006.38
2022-09-03T09:59:44.576Z,1006.36
2022-09-03T10:00:44.557Z,1006.38
2022-09-03T10:01:44.596Z,1006.40
2022-09-03T10:02:44.566Z,1006.32
2022-09-03T10:03:44.526Z,1006.34
2022-09-03T10:04:44.535Z,1006.39
2022-09-03T10:05:44.502Z,1006.31
2022-09-03T10:06:44.493Z,1006.38
2022-09-03T10:07:44.477Z,1006.40
2022-09-03T10:08:44.461Z,1006.38
2022-09-03T10:09:44.459Z,1006.26
2022-09-03T10:10:44.461Z,1006.31
2022-09-03T10:11:44.429Z,1006.31
2022-09-03T10:12:44.433Z,1006.31
2022-09-03T10:13:44.518Z,1006.31
2022-09-03T10:14:44.409Z,1006.29
2022-09-03T10:15:44.436Z,1006.31
2022-09-03T10:16:44.380Z,1006.30
2022-09-03T10:17:44.368Z,1006.30
2022-09-03T10:18:44.351Z,1006.33
2022-09-03T10:19:44.339Z,1006.32
2022-09-03T10:20:44.366Z,1006.32
2022-09-03T10:21:44.322Z,1006.29
2022-09-03T10:22:52.443Z,1006.28
2022-09-03T10:23:45.299Z,1006.30
2022-09-03T10:24:44.280Z,1006.35
2022-09-03T10:25:44.288Z,1006.31
2022-09-03T10:26:44.258Z,1006.29
2022-09-03T10:27:44.249Z,1006.30
2022-09-03T10:28:44.242Z,1006.35
2022-09-03T10:29:44.234Z,1006.30
2022-09-03T10:30:44.262Z,1006.29
2022-09-03T10:31:44.209Z,1006.39
2022-09-03T10:32:48.288Z,1006.39
2022-09-03T10:33:44.203Z,1006.39
2022-09-03T10:34:44.180Z,1006.42
2022-09-03T10:35:44.185Z,1006.32
2022-09-03T10:36:44.160Z,1006.32
2022-09-03T10:37:44.135Z,1006.33
2022-09-03T10:38:44.206Z,1006.31
2022-09-03T10:39:45.882Z,1006.29
2022-09-03T10:40:44.119Z,1006.28
2022-09-03T10:41:44.101Z,1006.25
2022-09-03T10:42:44.089Z,1006.27
2022-09-03T10:43:44.069Z,1006.35
2022-09-03T10:44:44.064Z,1006.27
2022-09-03T10:45:44.077Z,1006.33
2022-09-03T10:46:44.125Z,1006.26
2022-09-03T10:47:44.026Z,1006.23
2022-09-03T10:48:44.019Z,1006.16
2022-09-03T10:49:44.008Z,1006.22
2022-09-03T10:50:44.045Z,1006.17
2022-09-03T10:51:48.846Z,1006.17
2022-09-03T10:52:44.973Z,1006.16
2022-09-03T10:53:43.967Z,1006.20
2022-09-03T10:54:43.954Z,1006.18
2022-09-03T10:55:43.955Z,1006.13
2022-09-03T10:56:43.951Z,1006.17
2022-09-03T10:57:43.919Z,1006.15
2022-09-03T10:58:43.908Z,1006.14
2022-09-03T10:59:43.906Z,1006.14
2022-09-03T11:00:43.901Z,1006.13
2022-09-03T11:01:44.005Z,1006.13
2022-09-03T11:02:44.010Z,1006.15
2022-09-03T11:03:43.856Z,1006.18
2022-09-03T11:04:43.845Z,1006.19
2022-09-03T11:05:43.851Z,1006.14
2022-09-03T11:06:43.819Z,1006.13
2022-09-03T11:07:43.802Z,1006.14
2022-09-03T11:08:43.790Z,1006.18
2022-09-03T11:09:43.798Z,1006.15
2022-09-03T11:10:43.783Z,1006.16
2022-09-03T11:11:43.757Z,1006.13
2022-09-03T11:12:43.747Z,1006.13
2022-09-03T11:13:43.745Z,1006.12
2022-09-03T11:14:43.728Z,1006.09
2022-09-03T11:15:43.772Z,1006.12
2022-09-03T11:16:43.703Z,1006.06
2022-09-03T11:17:43.700Z,1006.03
2022-09-03T11:18:43.681Z,1006.03
2022-09-03T11:19:43.671Z,1006.08
2022-09-03T11:20:43.676Z,1006.05
2022-09-03T11:21:43.674Z,1006.03
2022-09-03T11:22:43.654Z,1006.02
2022-09-03T11:23:43.636Z,1006.03
2022-09-03T11:24:43.615Z,1006.08
2022-09-03T11:25:43.623Z,1006.07
2022-09-03T11:26:43.591Z,1006.05
2022-09-03T11:27:43.586Z,1006.01
2022-09-03T11:28:43.569Z,1006.01
2022-09-03T11:29:43.558Z,1005.96
2022-09-03T11:30:43.620Z,1005.99
2022-09-03T11:31:43.543Z,1006.01
2022-09-03T11:32:43.533Z,1005.95
2022-09-03T11:33:43.523Z,1005.94
2022-09-03T11:34:43.502Z,1005.91
2022-09-03T11:35:43.506Z,1005.90
2022-09-03T11:36:47.792Z,1005.92
2022-09-03T11:37:43.472Z,1005.89
2022-09-03T11:38:43.464Z,1005.89
2022-09-03T11:39:43.521Z,1005.94
2022-09-03T11:40:43.455Z,1005.88
2022-09-03T11:41:43.432Z,1005.89
2022-09-03T11:42:43.418Z,1005.88
2022-09-03T11:43:43.411Z,1005.81
2022-09-03T11:44:47.702Z,1005.78
2022-09-03T11:45:44.512Z,1005.77
2022-09-03T11:46:43.373Z,1005.75
2022-09-03T11:47:43.360Z,1005.69
2022-09-03T11:48:43.354Z,1005.71
2022-09-03T11:49:43.346Z,1005.78
2022-09-03T11:50:43.333Z,1005.76
2022-09-03T11:51:43.348Z,1005.79
2022-09-03T11:52:43.307Z,1005.75
2022-09-03T11:53:43.295Z,1005.75
2022-09-03T11:54:43.283Z,1005.68
2022-09-03T11:55:43.889Z,1005.71
2022-09-03T11:56:43.274Z,1005.76
2022-09-03T11:57:43.254Z,1005.70
2022-09-03T11:58:43.243Z,1005.68
2022-09-03T11:59:43.238Z,1005.64
2022-09-03T12:00:43.221Z,1005.65
2022-09-03T12:01:43.221Z,1005.62
2022-09-03T12:02:43.259Z,1005.59
2022-09-03T12:03:43.201Z,1005.54
2022-09-03T12:04:43.234Z,1005.53
2022-09-03T12:05:43.191Z,1005.55